Time;durP1;ratioP1;P1;durP2;ratioP2;P2;SDS_P1;SDS_P2;PMS_P1;PMS_P2;Temp;Humidity;BMP_temperature;BMP_pressure;BME280_temperature;BME280_humidity;BME280_pressure;Samples;Min_cycle;Max_cycle;Signal;HPM_P1;HPM_P2
2022/10/20 00:05:49;;;;;;;4.70;3.05;;;;;;;10.48;100.00;100139.05;4294211;81;28480;-84
2022/10/20 00:11:50;;;;;;;5.47;2.95;;;;;;;10.35;100.00;100142.50;4285506;81;28470;-84
2022/10/20 00:17:52;;;;;;;4.58;2.70;;;;;;;10.42;100.00;100153.30;4316629;81;28546;-84
2022/10/20 00:23:54;;;;;;;4.58;2.58;;;;;;;10.18;100.00;100146.88;4336693;80;28506;-83
2022/10/20 00:29:55;;;;;;;4.00;2.60;;;;;;;9.90;100.00;100151.00;4319162;82;28518;-83
2022/10/20 00:36:02;;;;;;;5.80;2.92;;;;;;;9.70;100.00;100149.57;4294615;80;28528;-84
2022/10/20 00:42:04;;;;;;;7.05;3.22;;;;;;;9.68;100.00;100152.94;4281600;80;28487;-84
2022/10/20 00:48:16;;;;;;;5.80;3.00;;;;;;;9.76;100.00;100147.42;4327369;80;28542;-84
2022/10/20 00:54:22;;;;;;;6.10;2.40;;;;;;;9.78;100.00;100145.35;4297876;81;28531;-84
2022/10/20 01:00:25;;;;;;;4.53;2.80;;;;;;;9.34;100.00;100140.14;4300865;80;28551;-85
2022/10/20 01:06:29;;;;;;;5.25;2.95;;;;;;;9.25;100.00;100141.31;4309110;81;28532;-84
2022/10/20 01:12:40;;;;;;;3.60;2.20;;;;;;;8.77;100.00;100136.59;4287027;82;28485;-84
2022/10/20 01:19:05;;;;;;;3.87;2.85;;;;;;;8.49;100.00;100149.39;4336919;80;28510;-88
2022/10/20 01:25:27;;;;;;;6.87;3.27;;;;;;;9.08;100.00;100138.62;4321891;80;28531;-88
2022/10/20 01:31:45;;;;;;;5.50;2.72;;;;;;;8.30;100.00;100128.88;4341582;80;28526;-87
2022/10/20 01:37:56;;;;;;;;;;;;;;;8.68;100.00;100139.07;4342320;81;28526;-87
2022/10/20 01:44:01;;;;;;;7.92;2.65;;;;;;;8.32;100.00;100133.53;4224407;83;20338;-89
2022/10/20 01:50:05;;;;;;;6.65;3.65;;;;;;;8.05;100.00;100143.12;4315993;82;28511;-87
2022/10/20 01:56:21;;;;;;;6.50;3.67;;;;;;;8.07;100.00;100149.11;4191002;82;28512;-87
2022/10/20 02:02:44;;;;;;;;;;;;;;;8.13;100.00;100139.50;4266056;82;28541;-86
2022/10/20 02:08:50;;;;;;;9.13;3.75;;;;;;;8.07;100.00;100143.75;4335095;82;20273;-85
2022/10/20 02:15:01;;;;;;;7.80;4.05;;;;;;;8.00;100.00;100143.67;4316733;81;28561;-85
2022/10/20 02:21:05;;;;;;;7.85;3.87;;;;;;;8.07;100.00;100139.73;4312185;82;28562;-85
2022/10/20 02:27:23;;;;;;;8.53;4.37;;;;;;;7.83;100.00;100147.06;4316550;80;28477;-84
2022/10/20 02:33:25;;;;;;;7.12;4.50;;;;;;;7.92;100.00;100144.62;4294718;81;28480;-86
2022/10/20 02:39:27;;;;;;;9.90;4.83;;;;;;;7.95;100.00;100152.77;4325295;82;28488;-86
2022/10/20 02:45:28;;;;;;;7.55;4.60;;;;;;;8.15;100.00;100147.67;4290630;82;28604;-84
2022/10/20 02:51:32;;;;;;;6.80;4.15;;;;;;;7.89;100.00;100155.67;4328169;81;28484;-84
2022/10/20 02:57:33;;;;;;;7.90;4.85;;;;;;;7.78;100.00;100148.96;4291217;82;28565;-86
2022/10/20 03:03:34;;;;;;;8.58;5.05;;;;;;;7.50;100.00;100153.61;4239205;81;28516;-88
2022/10/20 03:09:36;;;;;;;8.48;5.28;;;;;;;7.66;100.00;100159.81;4321093;81;28517;-87
2022/10/20 03:15:37;;;;;;;8.13;4.55;;;;;;;7.69;100.00;100163.45;4309504;81;28515;-87
2022/10/20 03:21:39;;;;;;;6.83;4.15;;;;;;;7.34;100.00;100169.81;4301811;81;28563;-87
2022/10/20 03:27:40;;;;;;;7.87;4.03;;;;;;;7.10;100.00;100179.23;4262866;82;28542;-87
2022/10/20 03:33:41;;;;;;;7.97;4.30;;;;;;;6.93;100.00;100185.72;4264443;81;28490;-87
2022/10/20 03:39:43;;;;;;;5.58;3.85;;;;;;;6.80;100.00;100190.31;4271663;81;28502;-85
2022/10/20 03:45:44;;;;;;;6.03;3.87;;;;;;;6.87;100.00;100197.95;4258268;81;28744;-86
2022/10/20 03:51:45;;;;;;;7.15;3.80;;;;;;;6.95;100.00;100201.91;4285313;81;28527;-85
2022/10/20 03:57:47;;;;;;;6.00;3.72;;;;;;;6.80;100.00;100203.68;4297849;81;28469;-85
2022/10/20 04:03:48;;;;;;;6.83;4.22;;;;;;;7.00;100.00;100208.55;4277192;81;28477;-89
2022/10/20 04:09:50;;;;;;;9.18;4.62;;;;;;;6.66;100.00;100202.59;4273425;81;28506;-87
2022/10/20 04:15:51;;;;;;;5.97;3.90;;;;;;;6.51;100.00;100211.38;4280245;81;28534;-85
2022/10/20 04:21:53;;;;;;;7.35;3.95;;;;;;;6.51;100.00;100203.36;4270154;81;28597;-77
2022/10/20 04:27:54;;;;;;;8.63;3.95;;;;;;;6.33;100.00;100200.95;4311064;82;28519;-79
2022/10/20 04:33:55;;;;;;;6.10;3.67;;;;;;;6.53;100.00;100205.87;4293366;82;28527;-78
2022/10/20 04:39:57;;;;;;;6.95;3.83;;;;;;;6.25;100.00;100208.52;4298822;82;28519;-77
2022/10/20 04:46:09;;;;;;;6.37;3.70;;;;;;;6.33;100.00;100203.63;4306214;81;28473;-83
2022/10/20 04:52:08;;;;;;;6.58;3.92;;;;;;;6.00;100.00;100199.73;4295403;82;28578;-84
2022/10/20 04:58:09;;;;;;;6.30;3.67;;;;;;;6.04;100.00;100197.56;4208090;83;28487;-85
2022/10/20 05:04:11;;;;;;;6.22;3.12;;;;;;;6.01;100.00;100197.39;4209876;82;28579;-85
2022/10/20 05:10:14;;;;;;;6.72;3.80;;;;;;;6.16;100.00;100202.03;4181155;84;28515;-77
2022/10/20 05:16:16;;;;;;;4.80;3.50;;;;;;;5.96;100.00;100206.41;4203578;83;28513;-77
2022/10/20 05:22:18;;;;;;;6.10;3.47;;;;;;;5.88;100.00;100211.77;4181315;82;28569;-85
2022/10/20 05:28:19;;;;;;;6.58;4.10;;;;;;;6.02;100.00;100216.44;4216464;82;28612;-82
2022/10/20 05:34:20;;;;;;;5.78;3.47;;;;;;;5.79;100.00;100218.97;4187754;82;28494;-83
2022/10/20 05:40:22;;;;;;;6.97;3.72;;;;;;;5.80;100.00;100216.14;4209294;84;28518;-81
2022/10/20 05:46:31;;;;;;;6.20;3.83;;;;;;;6.21;100.00;100220.53;4200040;83;28476;-81
2022/10/20 05:52:33;;;;;;;6.55;3.77;;;;;;;6.65;100.00;100222.31;4200892;83;28566;-83
2022/10/20 05:58:39;;;;;;;20.68;4.75;;;;;;;6.36;100.00;100245.20;4219629;83;28495;-83
2022/10/20 06:04:49;;;;;;;16.80;4.17;;;;;;;6.14;100.00;100240.91;4267011;81;28587;-84
2022/10/20 06:10:56;;;;;;;12.20;4.00;;;;;;;6.23;100.00;100253.23;4347200;80;28684;-83
2022/10/20 06:17:01;;;;;;;14.25;4.75;;;;;;;6.46;100.00;100251.65;4297366;80;28689;-81
2022/10/20 06:23:11;;;;;;;10.82;3.83;;;;;;;6.74;100.00;100253.33;4312932;80;28539;-84
2022/10/20 06:29:23;;;;;;;8.78;3.33;;;;;;;6.81;100.00;100255.64;4325639;80;28527;-83
2022/10/20 06:35:32;;;;;;;6.70;4.00;;;;;;;7.56;100.00;100258.28;4187510;82;46623;-83
2022/10/20 06:41:36;;;;;;;11.83;4.08;;;;;;;8.00;100.00;100255.31;4212698;82;28531;-84
2022/10/20 06:47:37;;;;;;;8.20;4.05;;;;;;;8.29;100.00;100245.13;4212821;83;28592;-78
2022/10/20 06:53:41;;;;;;;9.10;4.35;;;;;;;8.63;100.00;100246.87;4198501;84;28466;-85
2022/10/20 06:59:42;;;;;;;9.18;4.45;;;;;;;8.25;100.00;100254.53;4271908;81;28527;-82
2022/10/20 07:05:47;;;;;;;11.12;4.60;;;;;;;8.12;100.00;100251.16;4262856;81;28487;-82
2022/10/20 07:11:52;;;;;;;10.98;4.50;;;;;;;8.36;100.00;100247.36;4307263;81;28473;-82
2022/10/20 07:17:53;;;;;;;11.75;4.58;;;;;;;8.90;100.00;100243.16;4301048;81;28507;-82
2022/10/20 07:23:56;;;;;;;14.35;6.80;;;;;;;8.64;100.00;100242.68;4296542;81;28581;-82
2022/10/20 07:29:57;;;;;;;10.30;4.65;;;;;;;8.81;100.00;100242.96;4200056;83;28480;-82
2022/10/20 07:35:59;;;;;;;13.22;5.10;;;;;;;9.04;100.00;100233.41;4186995;83;28482;-82
2022/10/20 07:42:02;;;;;;;11.48;5.25;;;;;;;9.10;100.00;100244.69;4319494;80;28583;-82
2022/10/20 07:48:05;;;;;;;10.85;4.70;;;;;;;9.95;100.00;100229.66;4334522;81;28542;-82
2022/10/20 07:54:08;;;;;;;9.93;4.55;;;;;;;9.37;100.00;100236.05;4299711;81;28551;-83
2022/10/20 08:00:15;;;;;;;10.68;4.50;;;;;;;10.32;100.00;100231.09;4296333;82;28546;-82
2022/10/20 08:06:18;;;;;;;6.97;4.10;;;;;;;9.81;100.00;100230.92;4226346;82;28491;-82
2022/10/20 08:12:19;;;;;;;8.53;3.60;;;;;;;10.67;100.00;100219.96;4259301;82;28503;-83
2022/10/20 08:18:21;;;;;;;5.62;3.02;;;;;;;10.63;100.00;100226.79;4257778;82;28493;-81
2022/10/20 08:24:25;;;;;;;7.83;3.10;;;;;;;11.00;100.00;100230.00;4258511;82;28522;-82
2022/10/20 08:30:27;;;;;;;6.90;3.12;;;;;;;10.97;99.35;100229.03;4256175;82;28475;-82
2022/10/20 08:36:28;;;;;;;5.60;1.98;;;;;;;11.10;97.62;100237.66;4239562;82;28525;-81
2022/10/20 08:42:37;;;;;;;4.95;1.90;;;;;;;11.22;92.85;100241.39;4239110;82;28537;-82
2022/10/20 08:48:39;;;;;;;2.65;1.10;;;;;;;10.47;94.61;100235.55;4254739;82;28528;-82
2022/10/20 08:54:40;;;;;;;3.30;1.27;;;;;;;10.53;88.75;100241.44;4239501;82;28585;-81
2022/10/20 09:00:43;;;;;;;4.12;2.00;;;;;;;11.05;87.03;100239.61;4262035;82;28502;-82
2022/10/20 09:06:49;;;;;;;5.60;2.72;;;;;;;11.22;88.65;100231.16;4275524;81;28502;-83
2022/10/20 09:12:51;;;;;;;5.08;2.40;;;;;;;11.12;89.31;100227.00;4296737;81;28511;-82
2022/10/20 09:18:59;;;;;;;4.37;2.62;;;;;;;11.55;85.47;100217.67;4314599;81;28554;-82
2022/10/20 09:25:00;;;;;;;5.42;2.70;;;;;;;11.60;80.71;100218.39;4288026;81;28479;-82
2022/10/20 09:31:04;;;;;;;4.28;2.35;;;;;;;11.63;81.43;100213.11;4282623;81;28535;-83
2022/10/20 09:37:11;;;;;;;5.42;2.47;;;;;;;11.14;79.54;100211.47;4311372;81;28528;-82
2022/10/20 09:43:17;;;;;;;3.50;2.12;;;;;;;11.61;78.19;100203.08;4276066;82;28499;-83
2022/10/20 09:49:30;;;;;;;3.63;1.80;;;;;;;12.02;77.70;100194.37;4305556;82;28455;-82
2022/10/20 09:55:36;;;;;;;5.22;2.12;;;;;;;11.73;75.45;100191.15;4299711;81;41365;-82
2022/10/20 10:02:01;;;;;;;2.95;1.55;;;;;;;11.95;75.28;100190.34;4281153;81;28551;-84
2022/10/20 10:08:03;;;;;;;3.12;1.57;;;;;;;11.95;73.80;100181.76;4316401;81;28530;-84
2022/10/20 10:14:04;;;;;;;4.28;1.87;;;;;;;11.80;70.94;100183.36;4245991;81;28522;-83
2022/10/20 10:20:16;;;;;;;2.98;1.50;;;;;;;12.25;72.92;100177.73;4251883;82;28496;-82
2022/10/20 10:26:47;;;;;;;3.02;1.70;;;;;;;12.51;69.73;100182.17;4282873;81;28528;-82
2022/10/20 10:32:48;;;;;;;4.72;1.77;;;;;;;12.27;69.40;100177.83;4280906;81;28549;-82
2022/10/20 10:38:50;;;;;;;4.50;2.00;;;;;;;12.51;69.13;100173.27;4285498;81;28500;-82
2022/10/20 10:45:06;;;;;;;3.60;1.70;;;;;;;12.16;70.96;100167.72;4307632;81;28516;-83
2022/10/20 10:51:38;;;;;;;3.55;1.77;;;;;;;12.17;69.26;100164.48;4252282;81;28556;-83
2022/10/20 10:58:03;;;;;;;3.67;1.62;;;;;;;12.14;69.24;100171.16;4211036;81;28560;-82
2022/10/20 11:04:29;;;;;;;3.40;1.45;;;;;;;12.61;69.28;100160.64;4261751;81;43231;-82
2022/10/20 11:11:01;;;;;;;5.22;2.00;;;;;;;12.78;69.93;100150.98;4272894;82;28543;-82
2022/10/20 11:17:10;;;;;;;3.42;1.45;;;;;;;12.64;67.23;100144.02;4253053;81;28583;-82
2022/10/20 11:23:42;;;;;;;2.47;1.25;;;;;;;12.67;68.45;100131.45;4262366;81;28523;-82
2022/10/20 11:29:48;;;;;;;2.27;1.40;;;;;;;12.81;68.39;100124.91;4284750;81;28560;-82
2022/10/20 11:36:16;;;;;;;3.85;1.25;;;;;;;12.87;66.55;100128.59;4274623;82;28497;-82
2022/10/20 11:42:43;;;;;;;1.20;0.90;;;;;;;12.88;65.42;100109.20;4274681;81;28578;-82
2022/10/20 11:48:52;;;;;;;3.40;1.47;;;;;;;13.04;66.73;100103.23;4279411;81;28524;-82
2022/10/20 11:55:23;;;;;;;2.75;1.25;;;;;;;12.94;67.15;100089.41;4315914;81;28551;-82
2022/10/20 12:01:47;;;;;;;2.58;1.12;;;;;;;13.13;66.32;100080.84;4316022;81;28606;-82
2022/10/20 12:08:26;;;;;;;2.62;1.20;;;;;;;12.94;67.11;100077.26;4296129;82;28527;-82
2022/10/20 12:14:37;;;;;;;4.42;1.65;;;;;;;12.25;66.81;100069.88;4266879;81;28545;-82
2022/10/20 12:20:47;;;;;;;2.25;1.40;;;;;;;12.50;67.54;100061.84;4283670;82;28592;-82
2022/10/20 12:27:11;;;;;;;5.53;1.45;;;;;;;12.51;66.67;100060.78;4251587;82;28562;-82
2022/10/20 12:33:20;;;;;;;1.92;0.98;;;;;;;12.47;66.79;100056.05;4277578;81;28527;-82
2022/10/20 12:39:23;;;;;;;2.00;0.80;;;;;;;12.51;64.39;100047.84;4283282;82;28615;-82
2022/10/20 12:45:38;;;;;;;2.00;0.95;;;;;;;12.63;65.89;100046.59;4316605;81;28529;-81
2022/10/20 12:51:55;;;;;;;2.92;1.32;;;;;;;12.29;65.67;100038.77;4237204;81;28694;-81
2022/10/20 12:58:12;;;;;;;1.45;0.82;;;;;;;12.35;64.58;100037.88;4200470;81;28520;-81
2022/10/20 13:04:42;;;;;;;1.27;0.68;;;;;;;12.32;63.61;100030.23;4271973;81;28599;-82
2022/10/20 13:10:44;;;;;;;1.98;0.95;;;;;;;12.38;62.05;100031.22;4302798;81;28545;-82
2022/10/20 13:17:10;;;;;;;2.35;0.60;;;;;;;12.32;63.90;100026.19;4264592;81;28542;-81
2022/10/20 13:23:18;;;;;;;3.45;1.30;;;;;;;12.54;62.51;100020.42;4276321;82;28555;-82
2022/10/20 13:29:31;;;;;;;2.75;0.93;;;;;;;12.58;63.65;100019.46;4315134;81;28552;-82
2022/10/20 13:35:42;;;;;;;2.00;0.90;;;;;;;12.73;64.13;100015.89;4315569;81;28548;-82
2022/10/20 13:42:13;;;;;;;2.25;0.90;;;;;;;12.38;63.29;100003.72;4313778;81;28532;-82
2022/10/20 13:48:46;;;;;;;1.35;0.80;;;;;;;12.71;63.16;100000.45;4170379;82;28497;-83
2022/10/20 13:54:50;;;;;;;1.47;0.80;;;;;;;12.61;61.99;100005.52;4296002;81;28520;-83
2022/10/20 14:01:00;;;;;;;3.22;0.98;;;;;;;12.45;62.25;99999.64;4315401;81;28551;-82
2022/10/20 14:07:08;;;;;;;3.55;1.60;;;;;;;12.49;63.45;99990.56;4294249;81;28546;-81
2022/10/20 14:13:20;;;;;;;3.00;1.10;;;;;;;12.41;63.55;99995.21;4259099;81;28539;-81
2022/10/20 14:19:26;;;;;;;2.12;1.00;;;;;;;12.39;63.63;99987.03;4277139;81;28530;-80
2022/10/20 14:25:31;;;;;;;2.55;1.30;;;;;;;12.12;63.36;99998.84;4280446;81;28535;-81
2022/10/20 14:31:33;;;;;;;5.00;1.90;;;;;;;12.20;63.42;99982.10;4270692;81;28497;-81
2022/10/20 14:37:39;;;;;;;2.98;0.95;;;;;;;11.97;63.94;99986.98;4259145;82;28562;-81
2022/10/20 14:43:46;;;;;;;5.08;1.30;;;;;;;12.05;63.76;99980.52;4261610;81;28455;-81
2022/10/20 14:49:53;;;;;;;2.77;1.15;;;;;;;12.04;64.02;99980.77;4295530;81;28551;-81
2022/10/20 14:56:05;;;;;;;1.90;0.80;;;;;;;12.07;63.88;99974.39;4234371;81;28463;-81
2022/10/20 15:02:17;;;;;;;3.62;1.22;;;;;;;11.93;64.32;99972.80;4288099;81;28575;-81
2022/10/20 15:08:31;;;;;;;4.22;1.30;;;;;;;11.84;64.58;99967.67;4278977;81;28579;-81
2022/10/20 15:14:30;;;;;;;4.30;1.20;;;;;;;11.70;65.03;99962.87;4223004;81;28495;-81
2022/10/20 15:20:38;;;;;;;1.67;0.85;;;;;;;11.63;65.92;99957.22;4275656;81;28637;-82
2022/10/20 15:26:40;;;;;;;3.87;1.47;;;;;;;11.40;66.76;99941.08;4279088;81;28554;-89
2022/10/20 15:32:44;;;;;;;4.72;1.55;;;;;;;11.51;66.90;99935.55;4295823;82;28502;-90
2022/10/20 15:38:52;;;;;;;6.28;1.90;;;;;;;11.25;67.30;99924.69;4299143;81;28554;-83
2022/10/20 15:44:53;;;;;;;6.05;2.25;;;;;;;11.24;67.44;99926.23;4275386;82;28560;-86
2022/10/20 15:50:58;;;;;;;5.10;2.37;;;;;;;11.15;67.73;99925.66;4252454;81;28531;-85
2022/10/20 15:57:03;;;;;;;9.23;3.98;;;;;;;11.11;67.87;99923.91;4297267;81;28517;-85
2022/10/20 16:03:05;;;;;;;9.13;4.78;;;;;;;10.84;69.24;99922.64;4280773;81;42823;-84
2022/10/20 16:09:08;;;;;;;10.93;5.47;;;;;;;10.72;70.51;99920.30;4338889;80;28487;-82
2022/10/20 16:15:10;;;;;;;14.30;6.85;;;;;;;10.74;71.05;99916.37;4348318;80;28569;-82
2022/10/20 16:21:12;;;;;;;12.40;6.53;;;;;;;10.62;72.20;99911.84;4345878;80;28552;-85
2022/10/20 16:27:14;;;;;;;15.40;7.70;;;;;;;10.38;74.14;99924.87;4337572;80;28755;-82
2022/10/20 16:33:16;;;;;;;16.82;8.23;;;;;;;10.46;74.24;99924.66;4333999;80;28560;-83
2022/10/20 16:39:18;;;;;;;16.93;7.85;;;;;;;10.34;74.70;99925.80;4349118;80;28527;-83
2022/10/20 16:45:21;;;;;;;17.48;7.95;;;;;;;10.33;74.99;99943.77;4331565;82;28571;-82
2022/10/20 16:51:23;;;;;;;15.70;8.38;;;;;;;10.08;77.46;99940.06;4358289;80;28576;-82
2022/10/20 16:57:25;;;;;;;16.80;8.85;;;;;;;9.95;79.73;99942.21;4320669;81;28547;-82
2022/10/20 17:03:31;;;;;;;14.30;7.92;;;;;;;10.02;79.16;99935.00;4222130;82;28584;-86
2022/10/20 17:09:44;;;;;;;17.73;9.18;;;;;;;9.78;81.61;99939.09;4323798;82;28629;-82
2022/10/20 17:15:48;;;;;;;16.82;8.40;;;;;;;9.62;83.66;99938.42;4264949;81;28487;-81
2022/10/20 17:22:50;;;;;;;;;;;;;;;;;;;;;
2022/10/20 17:29:10;;;;;;;21.48;9.98;;;;;;;9.45;85.33;99948.70;4031433;87;28486;-81
2022/10/20 17:35:34;;;;;;;18.23;9.78;;;;;;;9.54;85.93;99946.15;3901703;89;28529;-81
2022/10/20 17:48:18;;;;;;;24.40;10.40;;;;;;;9.28;86.88;99942.86;3944535;88;28565;-80
2022/10/20 17:54:21;;;;;;;19.73;9.55;;;;;;;8.99;89.01;99936.73;4035270;84;28584;-88
2022/10/20 18:00:26;;;;;;;18.70;9.90;;;;;;;8.81;91.43;99938.10;4198451;81;28489;-82
2022/10/20 18:06:30;;;;;;;20.27;8.97;;;;;;;8.73;91.51;99932.36;4184899;82;28548;-83
2022/10/20 18:12:32;;;;;;;16.23;7.25;;;;;;;8.52;92.04;99929.25;4190818;83;28482;-82
2022/10/20 18:18:36;;;;;;;16.82;7.25;;;;;;;8.50;91.25;99927.25;4201654;84;28587;-81
2022/10/20 18:24:38;;;;;;;15.45;7.60;;;;;;;8.74;89.51;99923.82;4197774;84;28537;-80
2022/10/20 18:30:40;;;;;;;14.18;6.87;;;;;;;8.46;90.36;99927.31;4202717;82;28490;-81
2022/10/20 18:36:42;;;;;;;15.23;7.00;;;;;;;8.44;90.66;99928.02;4169592;83;28560;-84
2022/10/20 18:42:45;;;;;;;17.37;7.17;;;;;;;8.30;91.71;99916.38;4228170;84;28504;-83
2022/10/20 18:48:47;;;;;;;14.55;6.90;;;;;;;8.23;92.42;99911.81;4186650;82;28532;-82
2022/10/20 18:54:52;;;;;;;13.90;6.80;;;;;;;8.08;92.64;99912.39;4289049;81;28554;-84
2022/10/20 19:01:12;;;;;;;16.17;7.30;;;;;;;7.99;93.52;99907.69;4253777;81;37752;-78
2022/10/20 19:07:20;;;;;;;13.53;7.35;;;;;;;7.90;94.51;99905.63;4282992;81;28507;-82
2022/10/20 19:13:25;;;;;;;12.15;6.22;;;;;;;7.81;94.72;99907.63;4312744;82;28508;-84
2022/10/20 19:19:26;;;;;;;14.60;7.30;;;;;;;7.66;95.53;99900.99;4333792;82;28539;-83
2022/10/20 19:25:32;;;;;;;16.50;7.50;;;;;;;7.58;97.54;99899.77;4351626;80;28558;-84
2022/10/20 19:31:57;;;;;;;13.47;7.00;;;;;;;7.67;97.72;99901.84;4345965;82;28540;-84
2022/10/20 19:38:05;;;;;;;14.90;7.43;;;;;;;7.41;98.97;99896.51;4320178;80;28561;-85
2022/10/20 19:44:14;;;;;;;15.98;7.45;;;;;;;7.39;99.78;99903.90;4294226;81;28609;-86
2022/10/20 19:50:19;;;;;;;17.12;7.85;;;;;;;7.33;100.00;99901.47;4320825;80;28660;-83
2022/10/20 19:56:21;;;;;;;16.47;7.53;;;;;;;7.27;100.00;99904.08;4336967;80;28487;-84
2022/10/20 20:02:26;;;;;;;14.50;7.35;;;;;;;7.03;100.00;99902.86;4352801;80;28484;-83
2022/10/20 20:08:29;;;;;;;15.10;7.53;;;;;;;7.19;100.00;99894.33;4330873;80;28559;-81
2022/10/20 20:14:40;;;;;;;17.15;8.00;;;;;;;7.00;100.00;99894.37;4214051;81;28557;-83
2022/10/20 20:20:44;;;;;;;17.98;8.15;;;;;;;7.07;100.00;99881.41;4319162;81;28511;-83
2022/10/20 20:26:49;;;;;;;19.73;8.73;;;;;;;6.86;100.00;99884.86;4234720;82;28496;-83
2022/10/20 20:32:52;;;;;;;16.25;8.60;;;;;;;7.01;100.00;99885.34;4220656;82;28506;-83
2022/10/20 20:38:56;;;;;;;21.80;10.68;;;;;;;6.71;100.00;99879.52;4308937;82;28623;-82
2022/10/20 20:45:11;;;;;;;23.45;10.78;;;;;;;6.61;100.00;99877.14;4258995;82;28498;-82
2022/10/20 20:51:14;;;;;;;18.25;9.43;;;;;;;6.48;100.00;99865.76;4256828;81;28532;-82
2022/10/20 20:57:17;;;;;;;19.27;9.53;;;;;;;6.82;100.00;99863.02;4278382;82;28555;-83
2022/10/20 21:03:19;;;;;;;19.90;9.48;;;;;;;6.60;100.00;99856.75;4277342;81;28496;-81
2022/10/20 21:09:21;;;;;;;19.35;10.20;;;;;;;6.44;100.00;99872.46;4304401;81;28493;-83
2022/10/20 21:15:22;;;;;;;20.20;9.93;;;;;;;6.35;100.00;99866.39;4328233;80;28526;-82
2022/10/20 21:21:28;;;;;;;21.93;9.65;;;;;;;6.72;100.00;99849.11;4329854;82;28515;-82
2022/10/20 21:27:29;;;;;;;22.45;10.30;;;;;;;6.88;100.00;99841.92;4335245;82;28499;-83
2022/10/20 21:33:32;;;;;;;23.87;10.85;;;;;;;6.89;100.00;99835.03;4335351;81;28528;-83
2022/10/20 21:39:33;;;;;;;22.17;12.18;;;;;;;6.52;100.00;99821.61;4314827;81;28602;-83
2022/10/20 21:45:35;;;;;;;22.70;11.83;;;;;;;5.88;100.00;99824.26;4286389;81;28548;-81
2022/10/20 21:51:40;;;;;;;22.42;11.40;;;;;;;6.22;100.00;99824.28;4311203;80;28466;-81
2022/10/20 21:57:43;;;;;;;24.07;11.28;;;;;;;6.48;100.00;99820.83;4253208;82;28573;-81
2022/10/20 22:03:46;;;;;;;22.35;12.20;;;;;;;6.16;100.00;99805.50;4313710;81;28498;-82
2022/10/20 22:09:48;;;;;;;24.65;12.45;;;;;;;5.95;100.00;99801.18;4270908;81;28560;-83
2022/10/20 22:15:50;;;;;;;25.37;12.07;;;;;;;6.20;100.00;99792.94;4316987;81;28530;-83
2022/10/20 22:21:52;;;;;;;26.80;12.50;;;;;;;6.13;100.00;99792.84;4297294;81;28530;-84
2022/10/20 22:27:53;;;;;;;24.98;12.25;;;;;;;5.93;100.00;99799.17;4292302;82;28594;-83
2022/10/20 22:33:57;;;;;;;25.82;12.20;;;;;;;6.08;100.00;99799.22;4295058;81;28461;-82
2022/10/20 22:39:58;;;;;;;29.00;13.28;;;;;;;6.06;100.00;99777.75;4316687;81;28475;-82
2022/10/20 22:46:00;;;;;;;27.25;13.53;;;;;;;5.81;100.00;99770.78;4316435;82;28484;-82
2022/10/20 22:52:01;;;;;;;27.70;13.65;;;;;;;5.83;100.00;99777.25;4297117;82;28907;-84
2022/10/20 22:58:03;;;;;;;33.78;16.23;;;;;;;5.37;100.00;99766.17;4316538;82;28527;-84
2022/10/20 23:04:04;;;;;;;30.85;15.38;;;;;;;5.65;100.00;99773.09;4285362;81;28498;-84
2022/10/20 23:10:08;;;;;;;32.75;15.13;;;;;;;5.68;100.00;99773.25;4329713;82;28567;-81
2022/10/20 23:16:10;;;;;;;34.48;15.38;;;;;;;5.74;100.00;99778.37;4258314;81;28509;-81
2022/10/20 23:22:11;;;;;;;28.23;14.60;;;;;;;5.66;100.00;99771.25;4313235;81;28576;-81
2022/10/20 23:28:13;;;;;;;27.93;13.93;;;;;;;5.48;100.00;99772.91;4315868;82;28487;-82
2022/10/20 23:34:14;;;;;;;31.17;15.20;;;;;;;5.33;100.00;99769.70;4304781;81;28488;-83
2022/10/20 23:40:17;;;;;;;28.65;15.38;;;;;;;5.56;100.00;99763.51;4336228;80;28508;-82
2022/10/20 23:46:18;;;;;;;34.85;16.55;;;;;;;5.46;100.00;99759.74;4316415;81;28510;-82
2022/10/20 23:52:20;;;;;;;32.78;16.60;;;;;;;5.60;100.00;99758.64;4303836;82;28513;-83
2022/10/20 23:58:22;;;;;;;37.23;18.67;;;;;;;5.22;100.00;99754.12;4308573;82;28548;-83
